createdAt,value
2022-08-28T00:00:32.800Z,62.44
2022-08-28T00:03:01.354Z,62.63
2022-08-28T00:05:32.204Z,62.54
2022-08-28T00:08:02.487Z,62.59
2022-08-28T00:10:31.796Z,62.58
2022-08-28T00:13:00.340Z,62.70
2022-08-28T00:15:32.352Z,62.98
2022-08-28T00:18:00.744Z,62.81
2022-08-28T00:20:30.298Z,62.94
2022-08-28T00:22:59.658Z,63.15
2022-08-28T00:25:29.959Z,62.97
2022-08-28T00:28:05.210Z,63.15
2022-08-28T00:30:39.829Z,63.00
2022-08-28T00:33:11.630Z,63.27
2022-08-28T00:35:40.633Z,63.10
2022-08-28T00:38:09.126Z,63.21
2022-08-28T00:40:39.038Z,63.16
2022-08-28T00:43:10.803Z,63.12
2022-08-28T00:45:40.127Z,63.26
2022-08-28T00:48:08.451Z,63.45
2022-08-28T00:50:51.204Z,63.59
2022-08-28T00:53:19.661Z,63.63
2022-08-28T00:55:47.708Z,63.56
2022-08-28T00:58:17.552Z,63.64
2022-08-28T01:00:45.351Z,63.47
2022-08-28T01:03:13.300Z,63.88
2022-08-28T01:05:46.842Z,63.93
2022-08-28T01:08:14.925Z,64.15
2022-08-28T01:10:46.887Z,64.31
2022-08-28T01:13:16.712Z,64.81
2022-08-28T01:15:44.889Z,64.60
2022-08-28T01:18:16.555Z,64.34
2022-08-28T01:20:49.209Z,64.43
2022-08-28T01:23:24.451Z,64.32
2022-08-28T01:25:53.680Z,64.21
2022-08-28T01:28:21.851Z,64.14
2022-08-28T01:30:50.195Z,64.41
2022-08-28T01:33:19.577Z,64.31
2022-08-28T01:35:55.927Z,64.43
2022-08-28T01:38:26.958Z,64.58
2022-08-28T01:40:57.843Z,64.47
2022-08-28T01:43:28.340Z,64.60
2022-08-28T01:46:01.868Z,64.24
2022-08-28T01:48:32.123Z,64.34
2022-08-28T01:51:00.708Z,64.58
2022-08-28T01:53:32.485Z,64.72
2022-08-28T01:56:04.603Z,64.40
2022-08-28T01:58:37.943Z,64.56
2022-08-28T02:01:10.569Z,64.78
2022-08-28T02:03:38.434Z,64.64
2022-08-28T02:06:07.304Z,64.61
2022-08-28T02:08:35.755Z,64.72
2022-08-28T02:11:06.252Z,64.51
2022-08-28T02:13:35.067Z,64.73
2022-08-28T02:16:03.854Z,64.98
2022-08-28T02:18:31.677Z,64.80
2022-08-28T02:20:59.607Z,64.46
2022-08-28T02:23:27.485Z,64.79
2022-08-28T02:25:55.291Z,64.71
2022-08-28T02:28:24.464Z,65.13
2022-08-28T02:30:52.471Z,65.21
2022-08-28T02:33:20.306Z,65.17
2022-08-28T02:35:48.167Z,65.41
2022-08-28T02:38:17.114Z,65.62
2022-08-28T02:40:47.078Z,65.36
2022-08-28T02:43:14.860Z,65.32
2022-08-28T02:45:43.950Z,65.17
2022-08-28T02:48:16.958Z,65.40
2022-08-28T02:50:46.257Z,65.18
2022-08-28T02:53:14.959Z,65.57
2022-08-28T02:55:42.727Z,65.45
2022-08-28T02:58:10.752Z,65.18
2022-08-28T03:00:38.627Z,65.28
2022-08-28T03:03:08.672Z,65.44
2022-08-28T03:05:36.471Z,65.33
2022-08-28T03:08:04.860Z,65.34
2022-08-28T03:10:32.703Z,65.48
2022-08-28T03:13:00.542Z,65.52
2022-08-28T03:15:28.392Z,65.63
2022-08-28T03:17:56.215Z,65.53
2022-08-28T03:20:25.557Z,65.40
2022-08-28T03:23:15.912Z,65.54
2022-08-28T03:25:43.864Z,65.64
2022-08-28T03:28:12.004Z,65.62
2022-08-28T03:30:40.510Z,65.61
2022-08-28T03:33:08.379Z,65.46
2022-08-28T03:35:38.278Z,65.59
2022-08-28T03:38:06.606Z,65.66
2022-08-28T03:40:34.533Z,65.68
2022-08-28T03:43:02.334Z,66.04
2022-08-28T03:45:30.189Z,65.81
2022-08-28T03:47:57.963Z,65.78
2022-08-28T03:50:25.693Z,65.84
2022-08-28T03:52:57.673Z,65.89
2022-08-28T03:55:25.737Z,65.78
2022-08-28T03:57:53.887Z,65.59
2022-08-28T04:00:21.704Z,65.66
2022-08-28T04:02:49.454Z,65.85
2022-08-28T04:05:17.609Z,66.26
2022-08-28T04:07:45.819Z,66.61
2022-08-28T04:10:15.369Z,66.33
2022-08-28T04:12:43.639Z,66.45
2022-08-28T04:15:12.918Z,66.41
2022-08-28T04:17:41.387Z,66.49
2022-08-28T04:20:10.962Z,66.43
2022-08-28T04:22:38.829Z,66.23
2022-08-28T04:25:08.121Z,66.41
2022-08-28T04:27:37.267Z,66.74
2022-08-28T04:30:07.028Z,66.37
2022-08-28T04:32:39.091Z,66.70
2022-08-28T04:35:09.752Z,66.53
2022-08-28T04:37:39.112Z,67.02
2022-08-28T04:40:09.881Z,66.87
2022-08-28T04:42:40.094Z,66.95
2022-08-28T04:45:08.842Z,66.74
2022-08-28T04:47:37.975Z,67.04
2022-08-28T04:50:07.882Z,66.92
2022-08-28T04:52:35.880Z,67.45
2022-08-28T04:55:04.789Z,67.30
2022-08-28T04:57:36.240Z,67.09
2022-08-28T05:00:09.502Z,67.16
2022-08-28T05:02:37.479Z,67.20
2022-08-28T05:05:06.074Z,67.15
2022-08-28T05:07:34.739Z,67.09
2022-08-28T05:10:02.509Z,66.92
2022-08-28T05:12:30.906Z,66.81
2022-08-28T05:14:58.715Z,67.08
2022-08-28T05:17:27.825Z,67.01
2022-08-28T05:19:59.966Z,67.30
2022-08-28T05:22:28.889Z,66.79
2022-08-28T05:24:56.704Z,66.72
2022-08-28T05:27:25.666Z,66.98
2022-08-28T05:29:56.310Z,66.88
2022-08-28T05:32:27.706Z,66.84
2022-08-28T05:34:55.927Z,66.82
2022-08-28T05:37:23.652Z,66.77
2022-08-28T05:39:51.466Z,66.59
2022-08-28T05:42:19.303Z,66.42
2022-08-28T05:44:47.093Z,66.42
2022-08-28T05:47:15.270Z,66.37
2022-08-28T05:49:44.548Z,66.40
2022-08-28T05:52:12.375Z,66.11
2022-08-28T05:54:44.152Z,66.25
2022-08-28T05:57:11.921Z,66.45
2022-08-28T05:59:39.729Z,66.19
2022-08-28T06:02:07.590Z,66.08
2022-08-28T06:04:36.289Z,66.18
2022-08-28T06:07:06.488Z,65.98
2022-08-28T06:09:34.280Z,65.80
2022-08-28T06:12:02.957Z,65.61
2022-08-28T06:14:31.732Z,65.59
2022-08-28T06:17:00.962Z,65.53
2022-08-28T06:19:30.599Z,65.45
2022-08-28T06:22:00.915Z,65.43
2022-08-28T06:24:31.024Z,65.31
2022-08-28T06:26:59.628Z,65.54
2022-08-28T06:29:29.183Z,65.55
2022-08-28T06:31:59.269Z,65.54
2022-08-28T06:34:27.800Z,65.21
2022-08-28T06:36:55.950Z,65.06
2022-08-28T06:39:24.114Z,64.92
2022-08-28T06:41:53.713Z,64.51
2022-08-28T06:44:22.563Z,64.42
2022-08-28T06:46:52.433Z,64.24
2022-08-28T06:49:20.579Z,64.16
2022-08-28T06:51:48.569Z,64.12
2022-08-28T06:54:22.370Z,64.03
2022-08-28T06:56:51.682Z,63.94
2022-08-28T06:59:21.379Z,63.71
2022-08-28T07:01:49.700Z,63.33
2022-08-28T07:04:17.657Z,63.33
2022-08-28T07:06:47.001Z,63.15
2022-08-28T07:09:15.553Z,62.95
2022-08-28T07:11:46.567Z,62.84
2022-08-28T07:14:14.467Z,62.53
2022-08-28T07:16:44.575Z,62.65
2022-08-28T07:19:13.499Z,62.78
2022-08-28T07:21:43.984Z,62.76
2022-08-28T07:24:13.710Z,62.79
2022-08-28T07:26:43.465Z,62.82
2022-08-28T07:29:11.863Z,62.68
2022-08-28T07:31:42.756Z,62.68
2022-08-28T07:34:13.617Z,62.51
2022-08-28T07:36:42.258Z,62.50
2022-08-28T07:39:11.991Z,61.99
2022-08-28T07:41:42.607Z,62.07
2022-08-28T07:44:30.754Z,61.99
2022-08-28T07:47:02.245Z,61.83
2022-08-28T07:49:33.724Z,61.36
2022-08-28T07:52:01.857Z,61.35
2022-08-28T07:54:29.767Z,61.20
2022-08-28T07:56:57.726Z,61.00
2022-08-28T07:59:25.592Z,60.98
2022-08-28T08:01:53.993Z,60.80
2022-08-28T08:04:23.384Z,60.82
2022-08-28T08:06:57.820Z,60.50
2022-08-28T08:09:27.359Z,60.69
2022-08-28T08:11:57.609Z,60.70
2022-08-28T08:14:25.651Z,60.22
2022-08-28T08:16:53.622Z,60.30
2022-08-28T08:19:21.572Z,59.99
2022-08-28T08:21:54.539Z,59.59
2022-08-28T08:24:26.360Z,58.52
2022-08-28T08:26:59.215Z,57.97
2022-08-28T08:29:31.481Z,57.39
2022-08-28T08:32:05.031Z,56.46
2022-08-28T08:34:33.743Z,55.61
2022-08-28T08:37:01.634Z,54.58
2022-08-28T08:39:31.835Z,54.20
2022-08-28T08:42:01.835Z,53.43
2022-08-28T08:44:34.169Z,52.79
2022-08-28T08:47:14.831Z,52.27
2022-08-28T08:49:50.337Z,51.33
2022-08-28T08:52:43.152Z,50.59
2022-08-28T08:55:23.117Z,49.95
2022-08-28T08:58:00.457Z,49.38
2022-08-28T09:00:29.314Z,49.44
2022-08-28T09:03:05.878Z,49.70
2022-08-28T09:05:50.092Z,49.62
2022-08-28T09:08:27.599Z,48.96
2022-08-28T09:11:02.667Z,48.46
2022-08-28T09:13:38.573Z,48.44
2022-08-28T09:16:17.753Z,48.27
2022-08-28T09:18:48.141Z,48.00
2022-08-28T09:21:29.217Z,48.55
2022-08-28T09:24:01.131Z,48.12
2022-08-28T09:26:35.001Z,48.61
2022-08-28T09:29:07.373Z,48.68
2022-08-28T09:31:38.323Z,48.60
2022-08-28T09:34:29.079Z,48.93
2022-08-28T09:36:58.589Z,49.06
2022-08-28T09:39:28.823Z,48.91
2022-08-28T09:42:33.412Z,49.27
2022-08-28T09:45:09.134Z,49.08
2022-08-28T09:47:46.636Z,49.39
2022-08-28T09:50:34.145Z,48.37
2022-08-28T09:53:18.343Z,47.72
2022-08-28T09:55:56.610Z,47.48
2022-08-28T09:58:33.548Z,46.90
2022-08-28T10:01:10.142Z,46.34
2022-08-28T10:03:45.332Z,45.93
2022-08-28T10:06:20.065Z,45.17
2022-08-28T10:09:00.412Z,44.21
2022-08-28T10:11:38.371Z,42.95
2022-08-28T10:14:25.365Z,42.39
2022-08-28T10:17:11.839Z,41.84
2022-08-28T10:19:50.246Z,41.75
2022-08-28T10:22:30.475Z,41.11
2022-08-28T10:25:08.990Z,41.13
2022-08-28T10:27:51.869Z,40.73
2022-08-28T10:30:23.937Z,40.02
2022-08-28T10:33:17.805Z,40.17
2022-08-28T10:35:52.992Z,38.85
2022-08-28T10:38:29.385Z,38.65
2022-08-28T10:41:03.455Z,39.36
2022-08-28T10:43:35.784Z,39.40
2022-08-28T10:46:10.850Z,39.26
2022-08-28T10:48:46.332Z,39.59
2022-08-28T10:51:19.787Z,39.34
2022-08-28T10:54:08.134Z,38.40
2022-08-28T10:56:41.134Z,37.78
2022-08-28T10:59:08.977Z,37.80
2022-08-28T11:01:41.117Z,37.22
2022-08-28T11:04:23.453Z,37.69
2022-08-28T11:06:57.492Z,37.13
2022-08-28T11:09:34.719Z,37.50
2022-08-28T11:12:06.946Z,37.00
2022-08-28T11:14:47.551Z,36.90
2022-08-28T11:17:40.508Z,36.49
2022-08-28T11:20:16.707Z,36.29
2022-08-28T11:22:48.294Z,36.23
2022-08-28T11:25:26.609Z,35.68
2022-08-28T11:28:17.670Z,35.15
2022-08-28T11:30:47.120Z,35.24
2022-08-28T11:33:40.406Z,35.23
2022-08-28T11:36:12.216Z,34.98
2022-08-28T11:39:20.104Z,34.50
2022-08-28T11:42:33.453Z,34.36
2022-08-28T11:45:01.821Z,34.04
2022-08-28T11:47:43.366Z,34.19
2022-08-28T11:50:26.366Z,32.90
2022-08-28T11:53:36.102Z,33.05
2022-08-28T11:56:31.100Z,32.49
2022-08-28T11:59:13.366Z,32.58
2022-08-28T12:01:41.417Z,32.33
2022-08-28T12:04:13.320Z,32.76
2022-08-28T12:06:55.549Z,32.13
2022-08-28T12:09:45.020Z,31.52
2022-08-28T12:12:29.289Z,31.67
2022-08-28T12:15:01.570Z,31.54
2022-08-28T12:17:48.755Z,31.88
2022-08-28T12:21:00.401Z,31.12
2022-08-28T12:23:42.260Z,31.36
2022-08-28T12:26:19.006Z,31.17
2022-08-28T12:28:51.076Z,31.14
2022-08-28T12:32:08.462Z,31.41
2022-08-28T12:34:44.478Z,31.30
2022-08-28T12:37:36.926Z,31.51
2022-08-28T12:40:25.768Z,30.89
2022-08-28T12:42:56.649Z,30.85
2022-08-28T12:45:29.068Z,30.39
2022-08-28T12:48:01.126Z,30.21
2022-08-28T12:50:33.141Z,30.48
2022-08-28T12:53:03.825Z,30.05
2022-08-28T12:55:34.288Z,29.99
2022-08-28T12:58:02.102Z,30.50
2022-08-28T13:00:36.133Z,30.29
2022-08-28T13:03:08.244Z,30.38
2022-08-28T13:05:39.713Z,30.45
2022-08-28T13:08:10.715Z,30.42
2022-08-28T13:10:44.046Z,30.40
2022-08-28T13:13:20.713Z,30.76
2022-08-28T13:15:55.313Z,30.30
2022-08-28T13:18:42.646Z,30.29
2022-08-28T13:21:25.542Z,30.26
2022-08-28T13:24:17.657Z,29.38
2022-08-28T13:26:47.141Z,29.86
2022-08-28T13:29:20.527Z,29.79
2022-08-28T13:31:59.414Z,29.53
2022-08-28T13:34:29.566Z,29.31
2022-08-28T13:36:59.845Z,28.62
2022-08-28T13:39:30.178Z,28.64
2022-08-28T13:42:06.055Z,28.81
2022-08-28T13:44:35.773Z,29.57
2022-08-28T13:47:06.822Z,29.77
2022-08-28T13:49:35.560Z,30.19
2022-08-28T13:52:07.177Z,30.13
2022-08-28T13:54:35.043Z,30.31
2022-08-28T13:57:05.435Z,29.63
2022-08-28T13:59:33.610Z,30.21
2022-08-28T14:02:22.012Z,30.22
2022-08-28T14:04:49.842Z,30.15
2022-08-28T14:07:17.994Z,30.08
2022-08-28T14:09:46.106Z,29.74
2022-08-28T14:12:15.380Z,30.74
2022-08-28T14:14:43.343Z,30.55
2022-08-28T14:17:11.663Z,30.33
2022-08-28T14:19:39.494Z,31.27
2022-08-28T14:22:07.360Z,31.00
2022-08-28T14:24:35.192Z,31.50
2022-08-28T14:27:03.003Z,31.17
2022-08-28T14:29:32.439Z,31.43
2022-08-28T14:32:01.809Z,31.48
2022-08-28T14:34:29.843Z,31.52
2022-08-28T14:36:57.670Z,31.29
2022-08-28T14:39:27.506Z,31.16
2022-08-28T14:41:55.704Z,30.75
2022-08-28T14:44:25.276Z,30.84
2022-08-28T14:46:56.984Z,30.14
2022-08-28T14:49:26.036Z,30.74
2022-08-28T14:51:54.995Z,30.46
2022-08-28T14:54:26.259Z,31.43
2022-08-28T14:56:55.419Z,31.48
2022-08-28T14:59:25.736Z,31.50
2022-08-28T15:01:58.135Z,31.58
2022-08-28T15:04:28.145Z,31.94
2022-08-28T15:06:59.627Z,32.04
2022-08-28T15:09:28.412Z,32.04
2022-08-28T15:11:56.225Z,32.36
2022-08-28T15:14:24.014Z,32.36
2022-08-28T15:16:52.965Z,32.31
2022-08-28T15:19:23.326Z,32.06
2022-08-28T15:21:53.473Z,32.43
2022-08-28T15:24:23.303Z,32.59
2022-08-28T15:26:51.233Z,32.77
2022-08-28T15:29:19.411Z,33.08
2022-08-28T15:31:50.014Z,33.71
2022-08-28T15:34:20.047Z,33.61
2022-08-28T15:36:54.833Z,33.42
2022-08-28T15:39:41.129Z,33.86
2022-08-28T15:42:09.954Z,33.75
2022-08-28T15:44:38.173Z,33.84
2022-08-28T15:47:06.523Z,33.87
2022-08-28T15:49:46.900Z,34.07
2022-08-28T15:52:19.662Z,34.10
2022-08-28T15:54:47.893Z,33.94
2022-08-28T15:57:15.678Z,34.20
2022-08-28T15:59:49.452Z,34.14
2022-08-28T16:02:19.591Z,34.03
2022-08-28T16:04:47.572Z,34.35
2022-08-28T16:07:15.635Z,33.86
2022-08-28T16:09:44.814Z,34.31
2022-08-28T16:12:12.558Z,34.06
2022-08-28T16:14:40.339Z,34.09
2022-08-28T16:17:10.956Z,34.19
2022-08-28T16:19:39.630Z,34.47
2022-08-28T16:22:07.454Z,34.87
2022-08-28T16:24:35.225Z,34.79
2022-08-28T16:27:04.470Z,34.94
2022-08-28T16:29:34.284Z,34.68
2022-08-28T16:32:02.222Z,34.99
2022-08-28T16:34:31.572Z,34.67
2022-08-28T16:36:59.851Z,35.05
2022-08-28T16:39:28.532Z,35.05
2022-08-28T16:41:56.309Z,34.88
2022-08-28T16:44:26.682Z,35.13
2022-08-28T16:46:55.251Z,35.13
2022-08-28T16:49:23.596Z,35.43
2022-08-28T16:51:51.537Z,35.04
2022-08-28T16:54:19.476Z,35.53
2022-08-28T16:56:47.597Z,35.39
2022-08-28T16:59:16.590Z,35.54
2022-08-28T17:01:45.958Z,35.72
2022-08-28T17:04:21.399Z,35.50
2022-08-28T17:06:49.273Z,35.74
2022-08-28T17:09:17.087Z,35.64
2022-08-28T17:11:52.082Z,35.70
2022-08-28T17:14:20.534Z,35.99
2022-08-28T17:16:50.166Z,36.28
2022-08-28T17:19:18.229Z,36.27
2022-08-28T17:22:03.921Z,36.36
2022-08-28T17:24:31.879Z,36.40
2022-08-28T17:27:05.215Z,36.69
2022-08-28T17:29:33.572Z,36.62
2022-08-28T17:32:02.791Z,36.40
2022-08-28T17:34:30.818Z,36.66
2022-08-28T17:36:58.673Z,36.71
2022-08-28T17:39:26.639Z,36.46
2022-08-28T17:41:54.485Z,36.82
2022-08-28T17:44:22.308Z,36.74
2022-08-28T17:46:51.685Z,36.58
2022-08-28T17:49:22.399Z,36.83
2022-08-28T17:51:51.145Z,36.79
2022-08-28T17:54:21.549Z,36.94
2022-08-28T17:56:49.954Z,36.95
2022-08-28T17:59:17.903Z,37.03
2022-08-28T18:01:47.114Z,37.10
2022-08-28T18:04:20.121Z,37.26
2022-08-28T18:06:54.615Z,37.48
2022-08-28T18:09:23.423Z,37.50
2022-08-28T18:11:51.778Z,37.60
2022-08-28T18:14:19.596Z,37.95
2022-08-28T18:16:47.545Z,38.06
2022-08-28T18:19:16.320Z,38.39
2022-08-28T18:21:44.757Z,38.68
2022-08-28T18:24:14.029Z,38.56
2022-08-28T18:26:42.596Z,38.82
2022-08-28T18:29:10.769Z,39.22
2022-08-28T18:31:38.667Z,39.11
2022-08-28T18:34:06.884Z,39.68
2022-08-28T18:36:34.753Z,39.38
2022-08-28T18:39:02.613Z,39.49
2022-08-28T18:41:43.076Z,39.88
2022-08-28T18:44:13.256Z,39.82
2022-08-28T18:46:41.606Z,40.39
2022-08-28T18:49:09.954Z,40.40
2022-08-28T18:51:37.773Z,41.13
2022-08-28T18:54:06.243Z,40.77
2022-08-28T18:56:36.046Z,40.64
2022-08-28T18:59:06.800Z,40.92
2022-08-28T19:01:35.137Z,41.40
2022-08-28T19:04:03.255Z,41.62
2022-08-28T19:06:31.133Z,42.30
2022-08-28T19:08:59.169Z,42.52
2022-08-28T19:11:29.992Z,42.70
2022-08-28T19:13:59.684Z,42.98
2022-08-28T19:16:32.228Z,43.26
2022-08-28T19:19:00.151Z,43.56
2022-08-28T19:21:29.342Z,43.35
2022-08-28T19:23:57.607Z,43.59
2022-08-28T19:26:26.223Z,43.79
2022-08-28T19:28:54.689Z,43.70
2022-08-28T19:31:28.270Z,44.15
2022-08-28T19:33:57.133Z,44.00
2022-08-28T19:36:27.084Z,44.29
2022-08-28T19:38:54.858Z,44.49
2022-08-28T19:41:23.003Z,44.43
2022-08-28T19:43:50.904Z,44.70
2022-08-28T19:46:19.931Z,44.77
2022-08-28T19:48:50.991Z,44.77
2022-08-28T19:51:23.305Z,45.03
2022-08-28T19:53:58.709Z,45.23
2022-08-28T19:56:28.108Z,45.41
2022-08-28T19:58:57.487Z,45.64
2022-08-28T20:01:25.535Z,45.71
2022-08-28T20:03:54.988Z,45.90
2022-08-28T20:06:22.827Z,46.34
2022-08-28T20:08:51.898Z,46.36
2022-08-28T20:11:25.299Z,46.46
2022-08-28T20:13:53.512Z,46.72
2022-08-28T20:16:21.489Z,46.71
2022-08-28T20:18:50.340Z,46.95
2022-08-28T20:21:32.973Z,46.90
2022-08-28T20:24:07.308Z,47.21
2022-08-28T20:26:35.214Z,47.00
2022-08-28T20:29:03.252Z,47.10
2022-08-28T20:31:31.061Z,47.56
2022-08-28T20:33:59.041Z,47.68
2022-08-28T20:36:28.193Z,48.16
2022-08-28T20:38:55.999Z,48.13
2022-08-28T20:41:25.291Z,48.11
2022-08-28T20:43:53.200Z,48.13
2022-08-28T20:46:21.477Z,47.86
2022-08-28T20:48:49.310Z,47.60
2022-08-28T20:51:17.153Z,47.51
2022-08-28T20:53:46.545Z,47.19
2022-08-28T20:56:14.347Z,47.15
2022-08-28T20:58:42.185Z,46.63
2022-08-28T21:01:10.406Z,46.46
2022-08-28T21:03:38.174Z,46.33
2022-08-28T21:06:06.445Z,46.33
2022-08-28T21:08:34.240Z,46.69
2022-08-28T21:11:03.399Z,46.16
2022-08-28T21:13:32.142Z,46.05
2022-08-28T21:15:59.995Z,45.93
2022-08-28T21:18:31.239Z,46.10
2022-08-28T21:20:59.024Z,46.17
2022-08-28T21:23:27.104Z,45.91
2022-08-28T21:25:54.895Z,46.20
2022-08-28T21:28:24.151Z,45.91
2022-08-28T21:30:52.382Z,45.98
2022-08-28T21:33:20.185Z,45.93
2022-08-28T21:35:48.024Z,45.84
2022-08-28T21:38:15.936Z,45.59
2022-08-28T21:40:43.820Z,45.85
2022-08-28T21:43:12.250Z,46.13
2022-08-28T21:45:41.687Z,46.21
2022-08-28T21:48:10.006Z,46.06
2022-08-28T21:50:37.845Z,46.09
2022-08-28T21:53:05.633Z,46.19
2022-08-28T21:55:33.404Z,46.27
2022-08-28T21:58:01.151Z,46.41
2022-08-28T22:00:28.919Z,46.30
2022-08-28T22:02:58.156Z,46.54
2022-08-28T22:05:28.298Z,46.25
2022-08-28T22:07:56.178Z,46.35
2022-08-28T22:10:25.639Z,46.51
2022-08-28T22:12:53.428Z,46.33
2022-08-28T22:15:21.692Z,46.64
2022-08-28T22:17:49.577Z,46.62
2022-08-28T22:20:19.408Z,46.32
2022-08-28T22:23:04.408Z,46.35
2022-08-28T22:25:32.158Z,46.27
2022-08-28T22:28:09.282Z,46.44
2022-08-28T22:30:37.090Z,46.33
2022-08-28T22:33:05.085Z,46.15
2022-08-28T22:35:34.429Z,46.45
2022-08-28T22:38:02.185Z,46.12
2022-08-28T22:40:30.125Z,46.44
2022-08-28T22:42:58.264Z,45.85
2022-08-28T22:45:26.089Z,45.64
2022-08-28T22:47:54.041Z,45.95
2022-08-28T22:50:22.033Z,45.86
2022-08-28T22:52:51.819Z,45.79
2022-08-28T22:55:21.766Z,45.97
2022-08-28T22:57:49.757Z,45.91
2022-08-28T23:00:21.084Z,45.73
2022-08-28T23:02:49.951Z,45.76
2022-08-28T23:05:18.317Z,45.83
2022-08-28T23:07:46.221Z,45.75
2022-08-28T23:10:15.919Z,46.06
2022-08-28T23:12:43.946Z,45.86
2022-08-28T23:15:15.943Z,46.06
2022-08-28T23:17:44.276Z,46.29
2022-08-28T23:20:14.448Z,46.28
2022-08-28T23:22:42.781Z,46.73
2022-08-28T23:25:16.964Z,46.88
2022-08-28T23:27:45.384Z,46.59
2022-08-28T23:30:15.298Z,46.94
2022-08-28T23:32:43.189Z,46.82
2022-08-28T23:35:12.892Z,46.93
2022-08-28T23:37:45.522Z,46.91
2022-08-28T23:40:19.909Z,47.09
2022-08-28T23:42:48.489Z,47.02
2022-08-28T23:45:17.739Z,47.10
2022-08-28T23:47:46.106Z,47.28
2022-08-28T23:50:17.972Z,47.42
2022-08-28T23:52:45.999Z,47.63
2022-08-28T23:55:15.095Z,47.62
2022-08-28T23:57:44.477Z,47.81
